createdAt,value
2018-07-06T00:01:11.009Z,38.09
2018-07-06T00:02:11.070Z,38.09
2018-07-06T00:04:04.089Z,37.89
2018-07-06T00:05:04.126Z,38.29
2018-07-06T00:06:57.121Z,37.60
2018-07-06T00:07:57.187Z,37.80
2018-07-06T00:09:50.187Z,37.32
2018-07-06T00:10:50.244Z,36.93
2018-07-06T00:12:43.244Z,36.93
2018-07-06T00:13:43.307Z,36.55
2018-07-06T00:15:36.306Z,37.32
2018-07-06T00:16:36.363Z,36.65
2018-07-06T00:18:29.357Z,36.93
2018-07-06T00:19:29.422Z,36.74
2018-07-06T00:21:22.420Z,36.65
2018-07-06T00:22:22.480Z,37.03
2018-07-06T00:24:15.472Z,36.55
2018-07-06T00:25:15.537Z,36.36
2018-07-06T00:27:08.536Z,36.93
2018-07-06T00:28:08.594Z,36.93
2018-07-06T00:30:01.608Z,36.74
2018-07-06T00:31:01.650Z,36.93
2018-07-06T00:32:54.644Z,36.65
2018-07-06T00:33:54.708Z,36.65
2018-07-06T00:35:47.708Z,36.55
2018-07-06T00:36:47.816Z,36.93
2018-07-06T00:38:40.756Z,36.65
2018-07-06T00:39:40.820Z,36.55
2018-07-06T00:41:33.819Z,36.74
2018-07-06T00:42:33.877Z,36.46
2018-07-06T00:44:26.874Z,36.36
2018-07-06T00:45:26.935Z,36.16
2018-07-06T00:47:19.935Z,35.97
2018-07-06T00:48:19.993Z,35.97
2018-07-06T00:50:12.987Z,35.21
2018-07-06T00:51:13.048Z,34.92
2018-07-06T00:53:06.049Z,35.69
2018-07-06T00:54:06.105Z,35.88
2018-07-06T00:55:59.105Z,35.40
2018-07-06T00:56:59.162Z,35.78
2018-07-06T00:58:52.159Z,34.25
2018-07-06T00:59:52.222Z,34.82
2018-07-06T01:01:45.264Z,35.78
2018-07-06T01:02:45.281Z,35.49
2018-07-06T01:04:38.271Z,35.11
2018-07-06T01:05:38.338Z,34.71
2018-07-06T01:07:31.341Z,34.23
2018-07-06T01:08:31.393Z,34.23
2018-07-06T01:10:24.398Z,34.14
2018-07-06T01:11:24.462Z,33.75
2018-07-06T01:13:17.461Z,33.47
2018-07-06T01:14:17.520Z,33.37
2018-07-06T01:16:10.517Z,33.47
2018-07-06T01:17:10.574Z,33.08
2018-07-06T01:19:03.571Z,33.17
2018-07-06T01:20:03.636Z,33.47
2018-07-06T01:21:56.630Z,33.37
2018-07-06T01:22:56.690Z,33.27
2018-07-06T01:24:49.688Z,32.89
2018-07-06T01:25:49.748Z,32.89
2018-07-06T01:27:42.748Z,32.97
2018-07-06T01:28:42.804Z,32.59
2018-07-06T01:30:35.803Z,32.68
2018-07-06T01:31:35.870Z,32.59
2018-07-06T01:33:28.866Z,32.20
2018-07-06T01:34:28.938Z,32.39
2018-07-06T01:36:21.921Z,32.29
2018-07-06T01:37:21.977Z,32.20
2018-07-06T01:39:14.975Z,32.29
2018-07-06T01:40:15.034Z,31.82
2018-07-06T01:42:08.032Z,32.29
2018-07-06T01:43:08.090Z,32.29
2018-07-06T01:45:01.089Z,32.39
2018-07-06T01:46:01.157Z,32.59
2018-07-06T01:47:54.152Z,32.49
2018-07-06T01:48:54.208Z,32.60
2018-07-06T01:50:47.200Z,32.89
2018-07-06T01:51:47.264Z,32.79
2018-07-06T01:53:40.266Z,32.51
2018-07-06T01:54:40.328Z,32.79
2018-07-06T01:56:33.315Z,32.79
2018-07-06T01:57:33.380Z,32.79
2018-07-06T01:59:26.376Z,32.98
2018-07-06T02:00:26.435Z,32.79
2018-07-06T02:02:19.438Z,32.79
2018-07-06T02:03:19.493Z,32.89
2018-07-06T02:05:12.484Z,32.89
2018-07-06T02:06:12.550Z,32.70
2018-07-06T02:08:05.555Z,32.60
2018-07-06T02:09:05.613Z,32.89
2018-07-06T02:10:58.599Z,32.70
2018-07-06T02:11:58.665Z,32.79
2018-07-06T02:13:51.666Z,33.08
2018-07-06T02:14:51.723Z,32.98
2018-07-06T02:16:44.713Z,32.81
2018-07-06T02:17:44.777Z,32.42
2018-07-06T02:19:37.775Z,32.70
2018-07-06T02:20:37.837Z,32.60
2018-07-06T02:22:30.833Z,32.21
2018-07-06T02:23:30.894Z,31.93
2018-07-06T02:25:23.892Z,32.23
2018-07-06T02:26:23.951Z,32.23
2018-07-06T02:28:16.947Z,31.95
2018-07-06T02:29:17.007Z,32.70
2018-07-06T02:31:10.009Z,31.75
2018-07-06T02:32:10.065Z,32.70
2018-07-06T02:34:03.063Z,32.42
2018-07-06T02:35:03.123Z,32.89
2018-07-06T02:36:56.117Z,32.79
2018-07-06T02:37:56.178Z,32.90
2018-07-06T02:39:49.176Z,32.31
2018-07-06T02:40:49.234Z,32.90
2018-07-06T02:42:42.234Z,32.90
2018-07-06T02:43:42.300Z,33.09
2018-07-06T02:45:35.297Z,33.39
2018-07-06T02:46:35.355Z,33.19
2018-07-06T02:48:28.354Z,33.09
2018-07-06T02:49:28.409Z,33.09
2018-07-06T02:51:21.403Z,33.09
2018-07-06T02:52:21.467Z,32.90
2018-07-06T02:54:14.462Z,32.71
2018-07-06T02:55:14.613Z,32.23
2018-07-06T02:57:07.528Z,31.85
2018-07-06T02:58:07.579Z,32.90
2018-07-06T03:00:00.580Z,32.42
2018-07-06T03:01:00.638Z,32.81
2018-07-06T03:02:53.629Z,32.81
2018-07-06T03:03:53.693Z,32.81
2018-07-06T03:05:46.694Z,32.62
2018-07-06T03:06:46.749Z,32.42
2018-07-06T03:08:39.757Z,32.04
2018-07-06T03:09:39.811Z,32.62
2018-07-06T03:11:32.812Z,32.52
2018-07-06T03:12:32.876Z,32.52
2018-07-06T03:14:25.869Z,32.52
2018-07-06T03:15:25.926Z,33.00
2018-07-06T03:17:18.916Z,32.71
2018-07-06T03:18:18.981Z,32.71
2018-07-06T03:20:11.980Z,30.99
2018-07-06T03:21:12.036Z,30.99
2018-07-06T03:23:05.027Z,31.08
2018-07-06T03:24:05.093Z,30.70
2018-07-06T03:25:58.091Z,30.02
2018-07-06T03:26:58.148Z,30.79
2018-07-06T03:28:51.445Z,31.08
2018-07-06T03:29:51.208Z,31.08
2018-07-06T03:31:44.211Z,31.08
2018-07-06T03:32:44.264Z,30.12
2018-07-06T03:34:37.263Z,31.66
2018-07-06T03:35:37.319Z,31.27
2018-07-06T03:37:30.316Z,31.56
2018-07-06T03:38:30.381Z,30.60
2018-07-06T03:40:23.381Z,31.75
2018-07-06T03:41:23.439Z,30.99
2018-07-06T03:43:16.432Z,30.79
2018-07-06T03:44:16.495Z,30.89
2018-07-06T03:46:09.493Z,30.60
2018-07-06T03:47:09.552Z,31.75
2018-07-06T03:49:02.546Z,30.99
2018-07-06T03:50:02.607Z,31.75
2018-07-06T03:51:55.610Z,29.74
2018-07-06T03:52:55.684Z,30.12
2018-07-06T03:54:48.673Z,30.51
2018-07-06T03:55:48.723Z,30.89
2018-07-06T03:57:41.731Z,30.32
2018-07-06T03:58:41.779Z,29.74
2018-07-06T04:00:34.777Z,29.93
2018-07-06T04:01:34.840Z,29.93
2018-07-06T04:03:27.833Z,29.74
2018-07-06T04:04:27.895Z,30.02
2018-07-06T04:06:20.896Z,30.02
2018-07-06T04:07:20.957Z,30.02
2018-07-06T04:09:13.952Z,29.83
2018-07-06T04:10:14.009Z,30.22
2018-07-06T04:12:07.010Z,29.83
2018-07-06T04:13:07.067Z,30.12
2018-07-06T04:15:00.077Z,30.12
2018-07-06T04:16:00.134Z,29.74
2018-07-06T04:17:53.128Z,30.02
2018-07-06T04:18:53.186Z,29.93
2018-07-06T04:20:46.184Z,30.12
2018-07-06T04:21:46.241Z,30.02
2018-07-06T04:23:39.234Z,30.02
2018-07-06T04:24:39.296Z,30.12
2018-07-06T04:26:32.875Z,29.74
2018-07-06T04:27:32.862Z,30.41
2018-07-06T04:29:25.849Z,30.22
2018-07-06T04:30:25.923Z,30.99
2018-07-06T04:32:18.912Z,30.71
2018-07-06T04:33:18.967Z,31.08
2018-07-06T04:35:11.967Z,30.70
2018-07-06T04:36:12.025Z,30.51
2018-07-06T04:38:05.016Z,30.12
2018-07-06T04:39:05.082Z,30.22
2018-07-06T04:40:58.081Z,30.89
2018-07-06T04:41:58.144Z,30.62
2018-07-06T04:43:51.130Z,30.51
2018-07-06T04:44:51.196Z,30.81
2018-07-06T04:46:44.196Z,31.46
2018-07-06T04:47:44.260Z,31.08
2018-07-06T04:49:37.245Z,30.71
2018-07-06T04:50:37.311Z,30.99
2018-07-06T04:52:30.311Z,31.20
2018-07-06T04:53:30.401Z,31.29
2018-07-06T04:55:23.368Z,30.71
2018-07-06T04:56:23.425Z,30.62
2018-07-06T04:58:16.420Z,29.85
2018-07-06T04:59:16.492Z,29.85
2018-07-06T05:01:09.482Z,30.12
2018-07-06T05:02:09.542Z,30.02
2018-07-06T05:04:02.536Z,29.55
2018-07-06T05:05:02.596Z,29.74
2018-07-06T05:06:55.601Z,29.66
2018-07-06T05:07:55.659Z,29.74
2018-07-06T05:09:48.648Z,29.85
2018-07-06T05:10:48.714Z,29.83
2018-07-06T05:12:41.734Z,29.83
2018-07-06T05:13:41.791Z,29.64
2018-07-06T05:15:34.794Z,29.85
2018-07-06T05:16:34.852Z,29.45
2018-07-06T05:18:27.846Z,29.56
2018-07-06T05:19:27.908Z,29.16
2018-07-06T05:21:20.914Z,29.47
2018-07-06T05:22:20.968Z,29.08
2018-07-06T05:24:13.967Z,28.60
2018-07-06T05:25:14.033Z,28.60
2018-07-06T05:27:07.541Z,28.88
2018-07-06T05:28:07.600Z,28.78
2018-07-06T05:30:00.598Z,28.31
2018-07-06T05:31:00.664Z,28.60
2018-07-06T05:32:53.662Z,28.78
2018-07-06T05:33:53.720Z,28.68
2018-07-06T05:35:46.785Z,28.59
2018-07-06T05:36:46.804Z,28.49
2018-07-06T05:38:39.803Z,28.22
2018-07-06T05:39:39.860Z,28.79
2018-07-06T05:41:32.859Z,28.60
2018-07-06T05:42:32.915Z,28.89
2018-07-06T05:44:25.907Z,28.60
2018-07-06T05:45:25.971Z,28.70
2018-07-06T05:47:18.968Z,28.79
2018-07-06T05:48:19.027Z,29.47
2018-07-06T05:50:12.022Z,29.48
2018-07-06T05:51:12.080Z,29.27
2018-07-06T05:53:05.086Z,29.00
2018-07-06T05:54:05.141Z,29.47
2018-07-06T05:55:58.133Z,29.28
2018-07-06T05:56:58.193Z,29.28
2018-07-06T05:58:51.198Z,29.28
2018-07-06T05:59:51.255Z,29.38
2018-07-06T06:01:44.255Z,28.71
2018-07-06T06:02:44.309Z,29.48
2018-07-06T06:04:37.316Z,29.96
2018-07-06T06:05:37.369Z,29.86
2018-07-06T06:07:30.368Z,30.54
2018-07-06T06:08:30.430Z,30.65
2018-07-06T06:10:23.425Z,31.32
2018-07-06T06:11:23.487Z,31.41
2018-07-06T06:13:16.484Z,31.13
2018-07-06T06:14:16.543Z,31.32
2018-07-06T06:16:09.534Z,32.09
2018-07-06T06:17:09.598Z,31.70
2018-07-06T06:19:02.603Z,32.09
2018-07-06T06:20:02.663Z,32.57
2018-07-06T06:21:55.654Z,31.53
2018-07-06T06:22:55.717Z,32.49
2018-07-06T06:24:48.763Z,33.74
2018-07-06T06:25:48.767Z,33.26
2018-07-06T06:27:41.812Z,35.00
2018-07-06T06:28:41.864Z,36.54
2018-07-06T06:30:34.858Z,35.39
2018-07-06T06:31:34.921Z,35.49
2018-07-06T06:33:27.998Z,37.02
2018-07-06T06:34:27.979Z,37.02
2018-07-06T06:36:20.969Z,37.70
2018-07-06T06:37:21.042Z,37.41
2018-07-06T06:39:14.034Z,40.11
2018-07-06T06:40:14.096Z,33.95
2018-07-06T06:42:07.086Z,34.23
2018-07-06T06:43:07.154Z,39.14
2018-07-06T06:45:00.164Z,39.33
2018-07-06T06:46:00.216Z,40.61
2018-07-06T06:47:53.228Z,42.43
2018-07-06T06:48:53.286Z,42.14
2018-07-06T06:50:46.297Z,46.47
2018-07-06T06:51:46.334Z,46.28
2018-07-06T06:53:39.339Z,46.67
2018-07-06T06:54:39.395Z,47.34
2018-07-06T06:56:32.410Z,47.34
2018-07-06T06:57:32.452Z,47.63
2018-07-06T06:59:25.485Z,47.24
2018-07-06T07:00:27.534Z,46.95
2018-07-06T07:02:18.574Z,44.84
2018-07-06T07:03:18.605Z,44.65
2018-07-06T07:05:11.574Z,44.74
2018-07-06T07:06:11.654Z,43.78
2018-07-06T07:08:04.636Z,42.05
2018-07-06T07:09:04.698Z,43.40
2018-07-06T07:10:57.721Z,46.19
2018-07-06T07:11:57.769Z,45.99
2018-07-06T07:13:50.910Z,47.27
2018-07-06T07:14:50.857Z,49.38
2018-07-06T07:16:43.912Z,50.15
2018-07-06T07:17:43.946Z,49.77
2018-07-06T07:19:36.951Z,48.90
2018-07-06T07:20:36.946Z,49.38
2018-07-06T07:22:29.978Z,49.48
2018-07-06T07:23:30.019Z,49.36
2018-07-06T07:25:23.011Z,49.48
2018-07-06T07:26:23.066Z,49.68
2018-07-06T07:28:16.053Z,50.83
2018-07-06T07:29:16.125Z,51.50
2018-07-06T07:31:09.177Z,53.09
2018-07-06T07:32:09.191Z,54.16
2018-07-06T07:34:02.209Z,56.27
2018-07-06T07:35:02.261Z,56.09
2018-07-06T07:36:55.254Z,55.31
2018-07-06T07:37:55.307Z,58.01
2018-07-06T07:39:48.317Z,57.53
2018-07-06T07:40:48.376Z,58.49
2018-07-06T07:42:41.372Z,57.14
2018-07-06T07:43:41.439Z,57.43
2018-07-06T07:45:34.443Z,58.40
2018-07-06T07:46:34.541Z,59.55
2018-07-06T07:48:27.495Z,59.97
2018-07-06T07:49:27.568Z,59.58
2018-07-06T07:51:20.596Z,61.51
2018-07-06T07:52:20.656Z,62.18
2018-07-06T07:54:13.643Z,63.34
2018-07-06T07:55:13.697Z,64.89
2018-07-06T07:57:06.867Z,64.59
2018-07-06T07:58:06.755Z,64.69
2018-07-06T07:59:59.968Z,66.94
2018-07-06T08:00:59.958Z,69.68
2018-07-06T08:02:52.983Z,69.20
2018-07-06T08:03:52.887Z,69.39
2018-07-06T08:05:45.883Z,68.19
2018-07-06T08:06:45.955Z,67.43
2018-07-06T08:08:38.957Z,68.87
2018-07-06T08:09:39.027Z,69.87
2018-07-06T08:11:35.445Z,71.74
2018-07-06T08:12:32.089Z,72.06
2018-07-06T08:14:25.149Z,70.39
2018-07-06T08:15:25.150Z,72.55
2018-07-06T08:17:18.161Z,72.45
2018-07-06T08:18:18.266Z,69.88
2018-07-06T08:20:11.222Z,73.16
2018-07-06T08:21:11.278Z,66.89
2018-07-06T08:23:04.288Z,67.14
2018-07-06T08:24:04.360Z,68.60
2018-07-06T08:25:57.374Z,55.02
2018-07-06T08:26:57.431Z,50.42
2018-07-06T08:28:50.440Z,44.78
2018-07-06T08:29:50.508Z,42.68
2018-07-06T08:31:43.528Z,45.50
2018-07-06T08:32:43.586Z,47.71
2018-07-06T08:34:36.603Z,56.59
2018-07-06T08:35:36.670Z,56.87
2018-07-06T08:37:29.709Z,60.74
2018-07-06T08:38:29.756Z,62.68
2018-07-06T08:40:22.782Z,62.32
2018-07-06T08:41:22.848Z,63.39
2018-07-06T08:43:15.853Z,58.87
2018-07-06T08:44:15.942Z,52.66
2018-07-06T08:46:08.947Z,48.44
2018-07-06T08:47:09.025Z,46.99
2018-07-06T08:49:02.026Z,49.39
2018-07-06T08:50:02.101Z,53.06
2018-07-06T08:51:55.150Z,53.75
2018-07-06T08:52:55.186Z,49.15
2018-07-06T08:54:48.201Z,46.50
2018-07-06T08:55:48.482Z,45.40
2018-07-06T08:57:41.292Z,46.48
2018-07-06T08:58:41.384Z,50.78
2018-07-06T09:00:34.388Z,54.08
2018-07-06T09:01:34.466Z,55.93
2018-07-06T09:03:27.461Z,50.60
2018-07-06T09:04:27.636Z,47.97
2018-07-06T09:06:20.670Z,49.56
2018-07-06T09:07:20.624Z,48.26
2018-07-06T09:09:13.661Z,43.66
2018-07-06T09:10:13.716Z,42.13
2018-07-06T09:12:06.740Z,40.61
2018-07-06T09:13:06.851Z,40.90
2018-07-06T09:14:59.824Z,39.74
2018-07-06T09:15:59.902Z,39.69
2018-07-06T09:17:52.925Z,42.19
2018-07-06T09:18:52.995Z,41.45
2018-07-06T09:20:46.019Z,39.76
2018-07-06T09:21:46.089Z,39.06
2018-07-06T09:23:39.105Z,38.70
2018-07-06T09:24:39.183Z,37.84
2018-07-06T09:26:32.750Z,39.27
2018-07-06T09:27:32.788Z,40.33
2018-07-06T09:29:25.809Z,41.52
2018-07-06T09:30:25.888Z,43.38
2018-07-06T09:32:18.913Z,47.68
2018-07-06T09:33:18.983Z,46.01
2018-07-06T09:35:12.012Z,43.56
2018-07-06T09:36:12.079Z,43.13
2018-07-06T09:38:05.132Z,46.66
2018-07-06T09:39:05.168Z,47.24
2018-07-06T09:40:58.208Z,48.85
2018-07-06T09:41:58.271Z,49.12
2018-07-06T09:43:51.297Z,51.51
2018-07-06T09:44:51.381Z,53.55
2018-07-06T09:46:44.388Z,52.04
2018-07-06T09:47:44.455Z,53.77
2018-07-06T09:49:37.477Z,54.61
2018-07-06T09:50:37.546Z,55.88
2018-07-06T09:52:30.561Z,57.21
2018-07-06T09:53:30.628Z,56.85
2018-07-06T09:55:23.640Z,58.57
2018-07-06T09:56:23.710Z,58.54
2018-07-06T09:58:16.730Z,56.14
2018-07-06T09:59:16.792Z,55.65
2018-07-06T10:01:09.809Z,58.64
2018-07-06T10:02:09.878Z,61.19
2018-07-06T10:04:02.893Z,66.30
2018-07-06T10:05:02.958Z,62.88
2018-07-06T10:06:55.968Z,61.94
2018-07-06T10:07:56.032Z,59.70
2018-07-06T10:09:49.054Z,59.80
2018-07-06T10:10:49.108Z,60.64
2018-07-06T10:12:42.123Z,62.42
2018-07-06T10:13:42.188Z,61.04
2018-07-06T10:15:35.203Z,60.74
2018-07-06T10:16:35.267Z,60.16
2018-07-06T10:18:28.280Z,60.06
2018-07-06T10:19:28.390Z,60.64
2018-07-06T10:21:21.349Z,61.04
2018-07-06T10:22:21.414Z,61.61
2018-07-06T10:24:14.424Z,59.22
2018-07-06T10:25:14.487Z,58.31
2018-07-06T10:27:07.506Z,57.73
2018-07-06T10:28:07.562Z,56.18
2018-07-06T10:30:00.571Z,56.93
2018-07-06T10:31:00.642Z,57.70
2018-07-06T10:32:53.649Z,59.91
2018-07-06T10:33:53.796Z,60.97
2018-07-06T10:35:46.718Z,61.94
2018-07-06T10:36:46.784Z,60.88
2018-07-06T10:38:39.792Z,60.68
2018-07-06T10:39:39.947Z,62.04
2018-07-06T10:41:32.862Z,60.68
2018-07-06T10:42:32.932Z,60.78
2018-07-06T10:44:25.940Z,58.97
2018-07-06T10:45:26.006Z,59.26
2018-07-06T10:47:19.007Z,55.77
2018-07-06T10:48:19.075Z,55.96
2018-07-06T10:50:12.076Z,56.93
2018-07-06T10:51:12.146Z,54.99
2018-07-06T10:53:05.155Z,55.57
2018-07-06T10:54:05.218Z,55.93
2018-07-06T10:55:58.223Z,58.29
2018-07-06T10:56:58.288Z,57.90
2018-07-06T10:58:51.299Z,58.67
2018-07-06T10:59:51.359Z,61.58
2018-07-06T11:01:44.360Z,59.67
2018-07-06T11:02:44.430Z,64.30
2018-07-06T11:04:37.436Z,59.00
2018-07-06T11:05:37.500Z,59.48
2018-07-06T11:07:30.547Z,58.00
2018-07-06T11:08:30.594Z,59.58
2018-07-06T11:10:23.603Z,56.64
2018-07-06T11:11:23.706Z,57.03
2018-07-06T11:13:16.678Z,56.83
2018-07-06T11:14:16.742Z,57.03
2018-07-06T11:16:09.747Z,56.83
2018-07-06T11:17:09.832Z,58.48
2018-07-06T11:19:02.879Z,58.36
2018-07-06T11:20:02.890Z,58.26
2018-07-06T11:21:55.897Z,56.25
2018-07-06T11:22:55.965Z,55.47
2018-07-06T11:24:48.973Z,55.79
2018-07-06T11:25:49.036Z,53.83
2018-07-06T11:27:42.043Z,52.69
2018-07-06T11:28:42.105Z,52.86
2018-07-06T11:30:35.121Z,51.79
2018-07-06T11:31:35.185Z,51.79
2018-07-06T11:33:28.192Z,52.86
2018-07-06T11:34:28.258Z,53.63
2018-07-06T11:36:21.254Z,54.11
2018-07-06T11:37:21.325Z,54.02
2018-07-06T11:39:14.330Z,54.02
2018-07-06T11:40:14.396Z,54.90
2018-07-06T11:42:07.433Z,55.67
2018-07-06T11:43:07.497Z,54.80
2018-07-06T11:45:01.095Z,55.96
2018-07-06T11:46:01.073Z,54.60
2018-07-06T11:47:54.073Z,54.50
2018-07-06T11:48:54.141Z,53.53
2018-07-06T11:50:47.146Z,51.69
2018-07-06T11:51:47.207Z,52.08
2018-07-06T11:53:40.221Z,52.08
2018-07-06T11:54:40.281Z,51.33
2018-07-06T11:56:33.285Z,51.91
2018-07-06T11:57:33.353Z,51.53
2018-07-06T11:59:26.383Z,51.79
2018-07-06T12:00:26.429Z,52.59
2018-07-06T12:02:19.433Z,53.66
2018-07-06T12:03:19.508Z,53.56
2018-07-06T12:05:12.524Z,53.27
2018-07-06T12:06:12.585Z,53.47
2018-07-06T12:08:05.587Z,53.47
2018-07-06T12:09:05.654Z,52.01
2018-07-06T12:10:58.662Z,51.62
2018-07-06T12:11:58.723Z,52.59
2018-07-06T12:13:51.741Z,53.73
2018-07-06T12:14:51.798Z,53.44
2018-07-06T12:16:44.794Z,53.92
2018-07-06T12:17:44.884Z,52.28
2018-07-06T12:19:37.871Z,54.31
2018-07-06T12:20:37.929Z,56.93
2018-07-06T12:22:30.933Z,53.66
2018-07-06T12:23:31.003Z,53.66
2018-07-06T12:25:24.009Z,51.72
2018-07-06T12:26:24.072Z,50.84
2018-07-06T12:28:17.080Z,50.36
2018-07-06T12:29:17.261Z,50.84
2018-07-06T12:31:10.165Z,50.48
2018-07-06T12:32:10.217Z,49.90
2018-07-06T12:34:03.227Z,48.80
2018-07-06T12:35:03.285Z,50.36
2018-07-06T12:36:56.333Z,50.84
2018-07-06T12:37:56.356Z,51.55
2018-07-06T12:39:49.369Z,50.74
2018-07-06T12:40:49.424Z,51.04
2018-07-06T12:42:42.426Z,50.46
2018-07-06T12:43:42.494Z,50.07
2018-07-06T12:45:37.004Z,50.58
2018-07-06T12:46:37.065Z,50.46
2018-07-06T12:48:30.064Z,49.77
2018-07-06T12:49:30.135Z,49.00
2018-07-06T12:51:23.137Z,51.62
2018-07-06T12:52:23.200Z,50.26
2018-07-06T12:54:16.206Z,49.80
2018-07-06T12:55:16.276Z,49.51
2018-07-06T12:57:09.285Z,49.22
2018-07-06T12:58:09.410Z,48.93
2018-07-06T13:00:02.354Z,48.90
2018-07-06T13:01:02.421Z,49.39
2018-07-06T13:02:55.424Z,50.36
2018-07-06T13:03:55.487Z,51.43
2018-07-06T13:05:48.497Z,51.14
2018-07-06T13:06:48.558Z,50.72
2018-07-06T13:08:41.561Z,50.43
2018-07-06T13:09:41.629Z,50.72
2018-07-06T13:11:34.638Z,51.89
2018-07-06T13:12:34.699Z,51.79
2018-07-06T13:14:28.229Z,51.79
2018-07-06T13:15:28.279Z,51.62
2018-07-06T13:17:21.291Z,50.36
2018-07-06T13:18:21.346Z,50.16
2018-07-06T13:20:14.359Z,50.38
2018-07-06T13:21:14.430Z,50.48
2018-07-06T13:23:07.437Z,49.02
2018-07-06T13:24:07.503Z,49.24
2018-07-06T13:26:00.533Z,48.10
2018-07-06T13:27:00.568Z,47.52
2018-07-06T13:28:53.570Z,47.42
2018-07-06T13:29:53.638Z,47.05
2018-07-06T13:31:46.652Z,46.96
2018-07-06T13:32:46.714Z,46.77
2018-07-06T13:34:39.715Z,47.17
2018-07-06T13:35:39.786Z,50.19
2018-07-06T13:37:32.795Z,45.72
2018-07-06T13:38:32.856Z,46.37
2018-07-06T13:40:25.864Z,46.47
2018-07-06T13:41:25.932Z,46.86
2018-07-06T13:43:18.942Z,47.52
2018-07-06T13:44:19.007Z,47.71
2018-07-06T13:46:12.025Z,48.30
2018-07-06T13:47:12.076Z,48.68
2018-07-06T13:49:05.081Z,47.52
2018-07-06T13:50:05.147Z,46.55
2018-07-06T13:51:58.160Z,46.64
2018-07-06T13:52:58.234Z,46.45
2018-07-06T13:54:51.230Z,46.45
2018-07-06T13:55:51.297Z,46.25
2018-07-06T13:57:44.313Z,46.45
2018-07-06T13:58:44.375Z,46.45
2018-07-06T14:00:37.382Z,47.32
2018-07-06T14:01:37.449Z,47.13
2018-07-06T14:03:30.461Z,47.03
2018-07-06T14:04:30.527Z,47.03
2018-07-06T14:06:23.523Z,47.81
2018-07-06T14:07:23.597Z,46.77
2018-07-06T14:09:16.606Z,47.44
2018-07-06T14:10:16.664Z,46.77
2018-07-06T14:12:09.685Z,45.01
2018-07-06T14:13:09.750Z,44.33
2018-07-06T14:15:03.260Z,45.23
2018-07-06T14:16:03.334Z,45.81
2018-07-06T14:17:56.338Z,44.35
2018-07-06T14:18:56.401Z,44.16
2018-07-06T14:20:49.412Z,43.96
2018-07-06T14:21:49.473Z,45.52
2018-07-06T14:23:42.486Z,45.04
2018-07-06T14:24:42.547Z,44.26
2018-07-06T14:26:35.552Z,43.67
2018-07-06T14:27:35.622Z,44.06
2018-07-06T14:29:28.637Z,44.09
2018-07-06T14:30:28.695Z,43.30
2018-07-06T14:32:21.702Z,43.19
2018-07-06T14:33:21.766Z,43.40
2018-07-06T14:35:14.772Z,43.48
2018-07-06T14:36:14.838Z,43.29
2018-07-06T14:38:07.853Z,43.67
2018-07-06T14:39:07.909Z,44.45
2018-07-06T14:41:00.969Z,44.84
2018-07-06T14:42:00.982Z,44.35
2018-07-06T14:43:53.990Z,43.48
2018-07-06T14:44:54.055Z,42.70
2018-07-06T14:46:47.061Z,43.67
2018-07-06T14:47:47.124Z,43.96
2018-07-06T14:49:40.133Z,44.26
2018-07-06T14:50:40.193Z,43.48
2018-07-06T14:52:33.260Z,43.67
2018-07-06T14:53:33.299Z,43.87
2018-07-06T14:55:26.292Z,43.65
2018-07-06T14:56:26.354Z,43.75
2018-07-06T14:58:19.380Z,44.14
2018-07-06T14:59:19.422Z,44.14
2018-07-06T15:01:12.452Z,44.04
2018-07-06T15:02:12.504Z,44.26
2018-07-06T15:04:05.508Z,43.87
2018-07-06T15:05:05.575Z,44.06
2018-07-06T15:06:58.609Z,43.38
2018-07-06T15:07:58.650Z,43.36
2018-07-06T15:09:51.671Z,43.07
2018-07-06T15:10:51.731Z,43.95
2018-07-06T15:12:45.292Z,43.26
2018-07-06T15:13:45.344Z,43.46
2018-07-06T15:15:38.341Z,43.38
2018-07-06T15:16:38.384Z,43.58
2018-07-06T15:18:31.616Z,43.77
2018-07-06T15:19:31.453Z,42.80
2018-07-06T15:21:24.464Z,42.11
2018-07-06T15:22:24.537Z,42.87
2018-07-06T15:24:18.052Z,43.85
2018-07-06T15:25:18.113Z,43.73
2018-07-06T15:27:11.122Z,44.31
2018-07-06T15:28:11.185Z,44.51
2018-07-06T15:30:04.200Z,45.17
2018-07-06T15:31:04.269Z,45.28
2018-07-06T15:32:57.267Z,44.70
2018-07-06T15:33:57.355Z,45.97
2018-07-06T15:35:50.858Z,44.99
2018-07-06T15:36:50.913Z,45.38
2018-07-06T15:38:43.980Z,44.99
2018-07-06T15:39:43.983Z,45.18
2018-07-06T15:41:36.990Z,44.51
2018-07-06T15:42:37.065Z,44.51
2018-07-06T15:44:30.132Z,44.99
2018-07-06T15:45:30.136Z,45.28
2018-07-06T15:47:23.144Z,45.18
2018-07-06T15:48:23.219Z,44.12
2018-07-06T15:50:16.219Z,44.31
2018-07-06T15:51:16.284Z,45.18
2018-07-06T15:53:09.298Z,44.12
2018-07-06T15:54:09.375Z,43.92
2018-07-06T15:56:02.366Z,44.97
2018-07-06T15:57:02.447Z,44.09
2018-07-06T15:58:55.453Z,44.48
2018-07-06T15:59:55.512Z,43.92
2018-07-06T16:01:48.539Z,44.31
2018-07-06T16:02:48.596Z,45.57
2018-07-06T16:04:41.599Z,44.09
2018-07-06T16:05:41.665Z,43.90
2018-07-06T16:07:34.662Z,44.09
2018-07-06T16:08:34.732Z,44.09
2018-07-06T16:10:27.815Z,43.73
2018-07-06T16:11:27.796Z,43.63
2018-07-06T16:13:20.805Z,43.73
2018-07-06T16:14:20.886Z,43.73
2018-07-06T16:16:13.883Z,44.99
2018-07-06T16:17:13.940Z,42.85
2018-07-06T16:19:06.961Z,43.63
2018-07-06T16:20:07.014Z,43.44
2018-07-06T16:22:00.025Z,42.85
2018-07-06T16:23:00.084Z,43.34
2018-07-06T16:24:53.139Z,43.92
2018-07-06T16:25:53.159Z,44.41
2018-07-06T16:27:46.170Z,44.51
2018-07-06T16:28:46.232Z,43.92
2018-07-06T16:30:39.315Z,43.54
2018-07-06T16:31:39.384Z,43.73
2018-07-06T16:33:32.352Z,43.80
2018-07-06T16:34:32.397Z,43.80
2018-07-06T16:36:25.928Z,43.71
2018-07-06T16:37:25.959Z,44.38
2018-07-06T16:39:18.963Z,44.07
2018-07-06T16:40:19.032Z,43.61
2018-07-06T16:42:12.041Z,43.88
2018-07-06T16:43:12.102Z,44.07
2018-07-06T16:45:05.131Z,44.65
2018-07-06T16:46:05.177Z,44.27
2018-07-06T16:47:58.188Z,45.04
2018-07-06T16:48:58.255Z,45.43
2018-07-06T16:50:51.292Z,45.24
2018-07-06T16:51:51.322Z,44.37
2018-07-06T16:53:44.319Z,44.17
2018-07-06T16:54:44.388Z,44.64
2018-07-06T16:56:37.396Z,45.02
2018-07-06T16:57:37.455Z,44.92
2018-07-06T16:59:30.462Z,45.41
2018-07-06T17:00:30.528Z,45.89
2018-07-06T17:02:23.538Z,45.31
2018-07-06T17:03:23.602Z,45.12
2018-07-06T17:05:16.633Z,45.12
2018-07-06T17:06:16.671Z,45.02
2018-07-06T17:08:09.676Z,45.21
2018-07-06T17:09:09.740Z,45.51
2018-07-06T17:11:02.773Z,45.80
2018-07-06T17:12:02.816Z,45.12
2018-07-06T17:13:55.836Z,45.21
2018-07-06T17:14:55.882Z,44.90
2018-07-06T17:16:48.905Z,45.00
2018-07-06T17:17:48.949Z,45.58
2018-07-06T17:19:41.956Z,45.39
2018-07-06T17:20:42.019Z,45.68
2018-07-06T17:22:35.033Z,45.87
2018-07-06T17:23:35.102Z,46.26
2018-07-06T17:25:28.099Z,45.39
2018-07-06T17:26:28.164Z,45.00
2018-07-06T17:28:21.173Z,45.00
2018-07-06T17:29:21.237Z,45.29
2018-07-06T17:31:14.244Z,45.10
2018-07-06T17:32:14.309Z,45.10
2018-07-06T17:34:07.313Z,44.90
2018-07-06T17:35:07.375Z,45.10
2018-07-06T17:37:00.378Z,45.78
2018-07-06T17:38:00.490Z,45.95
2018-07-06T17:39:53.465Z,46.43
2018-07-06T17:40:53.514Z,45.37
2018-07-06T17:42:46.526Z,45.95
2018-07-06T17:43:46.593Z,45.75
2018-07-06T17:45:39.591Z,45.85
2018-07-06T17:46:39.659Z,45.65
2018-07-06T17:48:32.667Z,45.85
2018-07-06T17:49:32.776Z,45.85
2018-07-06T17:51:25.745Z,46.14
2018-07-06T17:52:25.801Z,46.33
2018-07-06T17:54:18.810Z,45.27
2018-07-06T17:55:18.872Z,45.27
2018-07-06T17:57:11.880Z,45.92
2018-07-06T17:58:11.938Z,45.37
2018-07-06T18:00:04.943Z,45.73
2018-07-06T18:01:05.003Z,46.22
2018-07-06T18:02:58.014Z,45.83
2018-07-06T18:03:58.072Z,45.83
2018-07-06T18:05:51.080Z,46.12
2018-07-06T18:06:51.142Z,46.31
2018-07-06T18:08:44.168Z,45.83
2018-07-06T18:09:44.224Z,46.12
2018-07-06T18:11:37.218Z,46.29
2018-07-06T18:12:37.286Z,46.29
2018-07-06T18:14:30.307Z,46.39
2018-07-06T18:15:30.370Z,45.81
2018-07-06T18:17:23.362Z,46.29
2018-07-06T18:18:23.419Z,46.00
2018-07-06T18:20:16.426Z,46.58
2018-07-06T18:21:16.486Z,46.58
2018-07-06T18:23:09.578Z,46.87
2018-07-06T18:24:09.553Z,46.67
2018-07-06T18:26:02.552Z,46.77
2018-07-06T18:27:02.625Z,46.58
2018-07-06T18:28:55.628Z,46.67
2018-07-06T18:29:55.696Z,46.56
2018-07-06T18:31:48.691Z,45.98
2018-07-06T18:32:48.755Z,46.17
2018-07-06T18:34:41.770Z,46.36